Time;durP1;ratioP1;P1;durP2;ratioP2;P2;SDS_P1;SDS_P2;PMS_P1;PMS_P2;Temp;Humidity;BMP_temperature;BMP_pressure;BME280_temperature;BME280_humidity;BME280_pressure;Samples;Min_cycle;Max_cycle;Signal;HPM_P1;HPM_P2
2023/01/26 00:01:31;;;;;;;;;;;;;;;25.27;33.26;95581.03;4970943;28;1149;-73
2023/01/26 00:03:57;;;;;;;;;;;;;;;25.25;33.53;95586.66;4974834;28;1080;-72
2023/01/26 00:06:22;;;;;;;;;;;;;;;25.27;33.40;95594.47;4977010;28;1936;-73
2023/01/26 00:08:49;;;;;;;;;;;;;;;25.24;33.48;95602.97;4976990;28;907;-73
2023/01/26 00:11:16;;;;;;;;;;;;;;;25.21;33.97;95587.31;4976995;28;1508;-72
2023/01/26 00:13:41;;;;;;;;;;;;;;;25.22;33.70;95588.97;4967506;28;977;-72
2023/01/26 00:16:09;;;;;;;;;;;;;;;25.19;33.79;95590.22;4976951;28;929;-72
2023/01/26 00:18:36;;;;;;;;;;;;;;;25.26;33.70;95590.16;4976824;28;1405;-72
2023/01/26 00:21:01;;;;;;;;;;;;;;;25.31;33.79;95601.88;4992639;28;1454;-71
2023/01/26 00:23:28;;;;;;;;;;;;;;;25.35;33.71;95589.63;4976309;28;1519;-72
2023/01/26 00:25:53;;;;;;;;;;;;;;;25.40;33.71;95590.84;4968197;28;1060;-72
2023/01/26 00:28:18;;;;;;;;;;;;;;;25.42;33.94;95588.78;4976945;28;1899;-72
2023/01/26 00:30:43;;;;;;;;;;;;;;;25.44;33.75;95594.72;4976575;28;1369;-71
2023/01/26 00:33:09;;;;;;;;;;;;;;;25.45;33.66;95574.91;4991647;28;1371;-72
2023/01/26 00:35:34;;;;;;;;;;;;;;;25.47;33.90;95570.09;4985756;28;1354;-72
2023/01/26 00:38:00;;;;;;;;;;;;;;;25.48;33.69;95566.41;4973025;28;1339;-72
2023/01/26 00:40:25;;;;;;;;;;;;;;;25.49;33.68;95557.28;4975627;28;878;-73
2023/01/26 00:42:53;;;;;;;;;;;;;;;25.50;33.72;95564.28;4992786;28;1195;-76
2023/01/26 00:45:18;;;;;;;;;;;;;;;25.41;33.99;95561.06;4976677;28;1529;-76
2023/01/26 00:47:43;;;;;;;;;;;;;;;25.39;33.91;95559.66;4966962;28;1968;-76
2023/01/26 00:50:09;;;;;;;;;;;;;;;25.36;34.03;95558.25;4976714;28;1606;-75
2023/01/26 00:52:34;;;;;;;;;;;;;;;25.34;33.92;95547.72;4991595;28;1167;-76
2023/01/26 00:55:00;;;;;;;;;;;;;;;25.30;34.10;95557.28;4991489;28;1301;-76
2023/01/26 00:57:25;;;;;;;;;;;;;;;25.28;34.12;95551.31;4980916;28;1346;-75
2023/01/26 00:59:50;;;;;;;;;;;;;;;25.26;34.13;95548.00;4967203;28;1133;-74
2023/01/26 01:02:15;;;;;;;;;;;;;;;25.25;34.30;95546.38;4975832;28;1506;-75
2023/01/26 01:04:41;;;;;;;;;;;;;;;25.25;34.26;95537.50;4976297;28;916;-74
2023/01/26 01:07:06;;;;;;;;;;;;;;;25.24;34.21;95533.97;4975695;28;1891;-73
2023/01/26 01:09:31;;;;;;;;;;;;;;;25.23;34.44;95539.56;4970686;28;1347;-72
2023/01/26 01:11:57;;;;;;;;;;;;;;;25.23;34.30;95537.72;4970838;28;1117;-73
2023/01/26 01:14:22;;;;;;;;;;;;;;;25.21;34.56;95534.41;4974384;28;1280;-73
2023/01/26 01:16:47;;;;;;;;;;;;;;;25.23;34.49;95535.03;4990654;28;1302;-73
2023/01/26 01:19:14;;;;;;;;;;;;;;;25.21;34.39;95534.41;4991330;28;1377;-75
2023/01/26 01:21:39;;;;;;;;;;;;;;;25.20;34.58;95524.72;4981821;28;1491;-76
2023/01/26 01:24:05;;;;;;;;;;;;;;;25.22;34.63;95524.53;4976138;28;1047;-74
2023/01/26 01:26:30;;;;;;;;;;;;;;;25.27;34.74;95525.50;4990574;28;1903;-74
2023/01/26 01:28:56;;;;;;;;;;;;;;;25.29;34.73;95520.69;4976137;28;856;-74
2023/01/26 01:31:22;;;;;;;;;;;;;;;25.33;34.85;95521.91;4975266;28;1433;-74
2023/01/26 01:33:47;;;;;;;;;;;;;;;25.34;34.82;95520.84;4980919;28;1199;-74
2023/01/26 01:36:14;;;;;;;;;;;;;;;25.35;34.67;95521.69;4975554;28;1238;-74
2023/01/26 01:38:39;;;;;;;;;;;;;;;25.39;34.61;95530.09;4975719;28;868;-73
2023/01/26 01:41:05;;;;;;;;;;;;;;;25.39;34.46;95522.88;4974728;28;1331;-73
2023/01/26 01:43:30;;;;;;;;;;;;;;;25.41;34.53;95519.97;4951802;28;959;-73
2023/01/26 01:45:57;;;;;;;;;;;;;;;25.41;34.47;95525.34;4961030;28;1381;-74
2023/01/26 01:48:34;;;;;;;;;;;;;;;25.40;34.70;95526.38;4975220;28;1915;-74
2023/01/26 01:51:03;;;;;;;;;;;;;;;25.42;34.57;95524.31;4973748;28;1180;-74
2023/01/26 01:53:32;;;;;;;;;;;;;;;25.43;34.70;95520.56;4973596;28;1388;-74
2023/01/26 01:55:59;;;;;;;;;;;;;;;25.43;34.48;95520.56;4966427;28;1049;-73
2023/01/26 01:58:25;;;;;;;;;;;;;;;25.40;34.41;95521.84;4989961;28;1203;-74
2023/01/26 02:00:51;;;;;;;;;;;;;;;25.33;34.44;95519.22;4974977;28;901;-74
2023/01/26 02:03:18;;;;;;;;;;;;;;;25.32;34.57;95516.75;4975578;28;798;-75
2023/01/26 02:05:46;;;;;;;;;;;;;;;25.27;34.59;95509.38;4975233;28;893;-75
2023/01/26 02:08:13;;;;;;;;;;;;;;;25.24;34.71;95501.75;4966600;28;1977;-75
2023/01/26 02:10:38;;;;;;;;;;;;;;;25.23;34.71;95504.66;4990479;28;1199;-74
2023/01/26 02:13:04;;;;;;;;;;;;;;;25.21;34.99;95502.19;4990454;28;1187;-76
2023/01/26 02:15:29;;;;;;;;;;;;;;;25.18;34.83;95491.91;4990295;28;1381;-75
2023/01/26 02:17:55;;;;;;;;;;;;;;;25.15;35.19;95500.41;4967878;28;1445;-73
2023/01/26 02:20:21;;;;;;;;;;;;;;;25.16;34.71;95488.63;4974827;28;1483;-75
2023/01/26 02:23:05;;;;;;;;;;;;;;;25.17;35.01;95479.53;4975992;28;1417;-74
2023/01/26 02:25:43;;;;;;;;;;;;;;;25.18;35.29;95481.16;4954376;29;1295;-72
2023/01/26 02:28:09;;;;;;;;;;;;;;;25.18;35.03;95465.06;4953811;29;1967;-71
2023/01/26 02:30:34;;;;;;;;;;;;;;;25.19;34.86;95472.09;4976934;28;1308;-73
2023/01/26 02:32:59;;;;;;;;;;;;;;;25.22;35.13;95477.00;4954376;29;1283;-72
2023/01/26 02:35:25;;;;;;;;;;;;;;;25.22;34.84;95462.75;4967558;28;1547;-71
2023/01/26 02:37:50;;;;;;;;;;;;;;;25.22;35.18;95462.75;4989102;28;1295;-71
2023/01/26 02:40:21;;;;;;;;;;;;;;;25.21;35.11;95450.34;4984518;28;1468;-71
2023/01/26 02:42:47;;;;;;;;;;;;;;;25.18;35.04;95454.31;4969804;28;1187;-71
2023/01/26 02:45:13;;;;;;;;;;;;;;;25.17;35.05;95457.22;4974143;28;806;-71
2023/01/26 02:47:39;;;;;;;;;;;;;;;25.16;35.47;95453.72;4973792;28;1982;-71
2023/01/26 02:50:05;;;;;;;;;;;;;;;25.18;35.23;95437.38;4974276;28;845;-71
2023/01/26 02:52:30;;;;;;;;;;;;;;;25.24;35.80;95449.91;4965308;28;977;-73
2023/01/26 02:57:40;;;;;;;;;;;;;;;25.31;35.05;95437.25;4974554;28;636;-70
2023/01/26 03:00:07;;;;;;;;;;;;;;;25.28;34.96;95430.44;4974389;28;1239;-70
2023/01/26 03:02:32;;;;;;;;;;;;;;;25.22;35.44;95427.84;4975409;28;935;-71
2023/01/26 03:04:57;;;;;;;;;;;;;;;25.18;35.17;95432.84;4969113;28;1081;-71
2023/01/26 03:07:23;;;;;;;;;;;;;;;25.18;35.38;95430.16;4976666;28;1910;-71
2023/01/26 03:09:48;;;;;;;;;;;;;;;25.24;35.38;95433.78;4978771;28;878;-73
2023/01/26 03:12:14;;;;;;;;;;;;;;;25.32;35.36;95426.25;4979139;28;781;-74
2023/01/26 03:14:40;;;;;;;;;;;;;;;25.38;35.16;95423.72;4986736;28;1503;-75
2023/01/26 03:17:05;;;;;;;;;;;;;;;25.41;35.14;95421.41;4977044;28;1138;-74
2023/01/26 03:27:44;;;;;;;;;;;;;;;25.43;35.10;95407.75;4968654;28;1969;-73
2023/01/26 03:30:10;;;;;;;;;;;;;;;25.43;35.36;95399.69;4977500;28;1307;-73
2023/01/26 03:32:35;;;;;;;;;;;;;;;25.46;34.93;95392.00;4992644;28;1616;-72
2023/01/26 03:35:01;;;;;;;;;;;;;;;25.46;34.96;95391.19;4992448;28;1245;-72
2023/01/26 03:37:26;;;;;;;;;;;;;;;25.49;34.95;95393.41;4971027;28;1067;-71
2023/01/26 03:56:23;;;;;;;;;;;;;;;25.51;35.10;95377.91;4977597;28;635;-71
2023/01/26 03:58:52;;;;;;;;;;;;;;;25.51;34.82;95373.34;4977163;28;833;-71
2023/01/26 04:01:18;;;;;;;;;;;;;;;25.55;34.89;95373.69;4982558;28;1415;-71
2023/01/26 04:09:14;;;;;;;;;;;;;;;25.45;34.44;95368.06;4977382;28;620;-73
2023/01/26 04:11:39;;;;;;;;;;;;;;;25.37;34.69;95371.06;4966968;28;1271;-74
2023/01/26 04:22:16;;;;;;;;;;;;;;;25.24;34.46;95350.56;4973428;28;1008;-72
2023/01/26 04:24:42;;;;;;;;;;;;;;;25.18;34.34;95336.16;4970970;28;1136;-72
2023/01/26 04:27:07;;;;;;;;;;;;;;;25.14;34.58;95340.38;4987882;28;1898;-72
2023/01/26 04:29:32;;;;;;;;;;;;;;;25.09;34.53;95332.13;4963719;28;1350;-72
2023/01/26 04:31:58;;;;;;;;;;;;;;;25.06;34.47;95344.13;4976346;28;1203;-72
2023/01/26 04:34:23;;;;;;;;;;;;;;;25.01;34.59;95341.31;4980774;28;1361;-72
2023/01/26 04:36:48;;;;;;;;;;;;;;;24.98;34.39;95336.38;4990313;28;1491;-72
2023/01/26 04:39:13;;;;;;;;;;;;;;;24.29;28.34;95342.91;4976608;28;1597;-73
2023/01/26 04:41:39;;;;;;;;;;;;;;;21.47;27.19;95345.09;4976503;28;985;-73
2023/01/26 04:44:04;;;;;;;;;;;;;;;20.29;28.14;95334.53;4991391;28;1262;-72
2023/01/26 04:46:29;;;;;;;;;;;;;;;19.45;27.02;95340.59;4981682;28;1899;-70
2023/01/26 04:48:55;;;;;;;;;;;;;;;18.73;26.56;95336.09;4976370;28;1606;-71
2023/01/26 04:51:21;;;;;;;;;;;;;;;18.26;26.68;95328.53;4976370;28;864;-71
2023/01/26 04:53:46;;;;;;;;;;;;;;;17.91;27.34;95336.19;4976497;28;888;-71
2023/01/26 04:56:16;;;;;;;;;;;;;;;18.39;28.28;95331.38;4975871;28;876;-72
2023/01/26 04:58:42;;;;;;;;;;;;;;;18.69;28.18;95339.31;4984168;28;1184;-71
2023/01/26 05:01:07;;;;;;;;;;;;;;;19.27;28.44;95337.56;4975703;28;1232;-73
2023/01/26 05:03:32;;;;;;;;;;;;;;;19.73;29.57;95331.88;4990705;28;1354;-73
2023/01/26 05:05:58;;;;;;;;;;;;;;;20.57;29.66;95337.16;4974969;28;3536;-73
2023/01/26 05:08:23;;;;;;;;;;;;;;;21.21;29.34;95336.00;4967913;28;1976;-70
2023/01/26 05:10:50;;;;;;;;;;;;;;;21.00;27.18;95333.44;4973620;28;1442;-72
2023/01/26 05:13:15;;;;;;;;;;;;;;;20.78;28.79;95330.09;4975800;28;1326;-72
2023/01/26 05:15:40;;;;;;;;;;;;;;;21.26;29.49;95328.22;4972368;28;1563;-71
2023/01/26 05:18:06;;;;;;;;;;;;;;;21.56;29.18;95323.34;4955241;28;1595;-71
2023/01/26 05:20:31;;;;;;;;;;;;;;;21.82;29.38;95329.72;4957975;28;1112;-71
2023/01/26 05:22:57;;;;;;;;;;;;;;;22.03;29.22;95328.72;5006885;28;1450;-72
2023/01/26 05:25:23;;;;;;;;;;;;;;;22.20;29.27;95321.94;5006367;28;1163;-73
2023/01/26 05:27:48;;;;;;;;;;;;;;;22.35;29.39;95318.22;4975552;28;1910;-72
2023/01/26 05:30:14;;;;;;;;;;;;;;;22.43;29.35;95313.47;4975137;28;1366;-71
2023/01/26 05:32:39;;;;;;;;;;;;;;;22.51;29.22;95315.06;4981250;28;1215;-71
2023/01/26 05:35:04;;;;;;;;;;;;;;;22.60;29.23;95324.53;4975774;28;869;-72
2023/01/26 05:37:30;;;;;;;;;;;;;;;22.69;29.38;95314.41;5006667;28;1266;-72
2023/01/26 05:39:55;;;;;;;;;;;;;;;22.72;29.46;95316.66;5006700;28;1175;-74
2023/01/26 05:42:21;;;;;;;;;;;;;;;22.81;29.47;95309.22;5001474;28;1195;-71
2023/01/26 05:44:46;;;;;;;;;;;;;;;22.85;29.50;95310.41;4971001;28;1125;-71
2023/01/26 05:47:11;;;;;;;;;;;;;;;22.89;29.49;95311.66;4990224;28;1906;-70
2023/01/26 05:49:44;;;;;;;;;;;;;;;22.94;29.49;95313.69;4975317;28;828;-71
2023/01/26 05:52:14;;;;;;;;;;;;;;;22.98;29.34;95315.75;4975203;28;790;-71
2023/01/26 05:54:40;;;;;;;;;;;;;;;23.00;29.63;95315.56;4965967;28;965;-72
2023/01/26 05:57:05;;;;;;;;;;;;;;;23.01;29.60;95315.31;4975171;28;849;-72
2023/01/26 05:59:30;;;;;;;;;;;;;;;23.05;29.68;95313.88;4975065;28;844;-72
2023/01/26 06:01:56;;;;;;;;;;;;;;;23.05;29.81;95310.38;4974952;28;1071;-72
2023/01/26 06:04:21;;;;;;;;;;;;;;;23.07;29.70;95310.97;5006187;28;1368;-72
2023/01/26 06:06:47;;;;;;;;;;;;;;;23.08;29.74;95310.78;4965709;28;1902;-72
2023/01/26 06:09:12;;;;;;;;;;;;;;;23.07;29.70;95302.94;5006069;28;1289;-72
2023/01/26 06:11:37;;;;;;;;;;;;;;;23.05;29.86;95308.53;4974829;28;870;-72
2023/01/26 06:14:02;;;;;;;;;;;;;;;23.09;29.92;95306.25;5006113;28;1187;-72
2023/01/26 06:16:28;;;;;;;;;;;;;;;23.07;29.84;95309.13;4968929;28;966;-72
2023/01/26 06:18:53;;;;;;;;;;;;;;;23.11;29.90;95309.53;4971245;28;1122;-72
2023/01/26 06:21:18;;;;;;;;;;;;;;;23.09;29.87;95307.06;4974942;28;798;-72
2023/01/26 06:23:44;;;;;;;;;;;;;;;23.10;29.97;95302.53;4974580;28;886;-72
2023/01/26 06:26:09;;;;;;;;;;;;;;;23.11;30.03;95296.16;4974851;28;962;-73
2023/01/26 06:28:35;;;;;;;;;;;;;;;23.11;29.87;95299.63;4965620;28;1970;-73
2023/01/26 06:31:04;;;;;;;;;;;;;;;23.12;29.95;95301.28;4989469;28;1272;-71
2023/01/26 06:33:35;;;;;;;;;;;;;;;23.13;29.96;95291.38;4974614;28;798;-72
2023/01/26 06:36:04;;;;;;;;;;;;;;;23.13;30.14;95286.84;4974836;28;916;-71
2023/01/26 06:38:30;;;;;;;;;;;;;;;23.16;30.16;95292.81;4972848;28;1032;-71
2023/01/26 06:40:58;;;;;;;;;;;;;;;23.15;30.11;95288.50;4966055;28;1066;-71
2023/01/26 06:43:23;;;;;;;;;;;;;;;23.12;30.04;95284.41;4974398;28;1079;-70
2023/01/26 06:45:48;;;;;;;;;;;;;;;23.14;30.24;95287.69;4974397;28;876;-71
2023/01/26 06:48:14;;;;;;;;;;;;;;;23.15;30.26;95292.00;4974291;28;1962;-71
2023/01/26 06:50:39;;;;;;;;;;;;;;;23.17;30.10;95287.25;4966338;28;1047;-71
2023/01/26 06:53:24;;;;;;;;;;;;;;;23.17;30.26;95295.28;4972952;28;1319;-71
2023/01/26 06:55:50;;;;;;;;;;;;;;;23.19;30.22;95284.34;4974746;28;872;-70
2023/01/26 06:58:15;;;;;;;;;;;;;;;23.19;30.20;95292.38;4974341;28;949;-71
2023/01/26 07:00:40;;;;;;;;;;;;;;;23.18;30.21;95283.53;4974180;28;958;-72
2023/01/26 07:03:06;;;;;;;;;;;;;;;23.19;30.30;95277.13;4965263;28;1164;-71
2023/01/26 07:05:31;;;;;;;;;;;;;;;23.20;30.36;95286.00;4989039;28;1318;-71
2023/01/26 07:07:59;;;;;;;;;;;;;;;23.20;30.26;95276.13;4974136;28;1954;-71
2023/01/26 07:10:24;;;;;;;;;;;;;;;23.18;30.46;95269.34;4974380;28;888;-72
2023/01/26 07:12:49;;;;;;;;;;;;;;;23.18;30.50;95266.66;5001023;28;1364;-71
2023/01/26 07:15:17;;;;;;;;;;;;;;;23.20;30.37;95267.28;4969183;28;1140;-72
2023/01/26 07:17:42;;;;;;;;;;;;;;;23.22;30.48;95265.19;4974155;28;848;-71
2023/01/26 07:20:07;;;;;;;;;;;;;;;23.25;30.44;95275.47;4974047;28;1260;-72
2023/01/26 07:22:33;;;;;;;;;;;;;;;23.26;30.31;95259.19;4974135;28;873;-71
2023/01/26 07:24:58;;;;;;;;;;;;;;;23.32;30.44;95257.50;4964938;28;996;-71
2023/01/26 07:27:23;;;;;;;;;;;;;;;23.36;30.45;95264.06;4973728;28;1890;-71
2023/01/26 07:29:50;;;;;;;;;;;;;;;23.35;30.17;95262.44;4988866;28;1291;-71
2023/01/26 07:32:15;;;;;;;;;;;;;;;23.34;30.25;95260.78;5005434;28;1322;-71
2023/01/26 07:34:40;;;;;;;;;;;;;;;23.34;30.38;95263.47;4973997;28;881;-72
2023/01/26 07:37:06;;;;;;;;;;;;;;;23.35;30.37;95257.88;4979327;28;1302;-72
2023/01/26 07:39:31;;;;;;;;;;;;;;;23.34;30.51;95244.72;4973832;28;955;-71
2023/01/26 07:41:56;;;;;;;;;;;;;;;23.35;30.24;95246.38;5005232;28;1404;-72
2023/01/26 07:44:22;;;;;;;;;;;;;;;23.38;30.48;95245.13;4973667;28;877;-71
2023/01/26 07:46:47;;;;;;;;;;;;;;;23.31;30.23;95235.28;4970367;28;1907;-70
2023/01/26 07:49:12;;;;;;;;;;;;;;;23.35;30.40;95249.03;4970251;28;1082;-71
2023/01/26 07:51:38;;;;;;;;;;;;;;;23.36;30.42;95248.00;4977426;28;817;-71
2023/01/26 07:54:04;;;;;;;;;;;;;;;23.36;30.36;95245.31;4977341;28;869;-70
2023/01/26 07:56:29;;;;;;;;;;;;;;;23.37;30.38;95246.97;4977369;28;941;-70
2023/01/26 07:58:55;;;;;;;;;;;;;;;23.39;30.18;95249.41;4968548;28;1054;-70
2023/01/26 08:01:20;;;;;;;;;;;;;;;23.38;30.38;95245.94;4991967;28;1172;-70
2023/01/26 08:03:48;;;;;;;;;;;;;;;23.39;30.25;95236.03;4977236;28;877;-71
2023/01/26 08:06:13;;;;;;;;;;;;;;;23.38;30.41;95235.22;4977546;28;1898;-71
2023/01/26 08:08:41;;;;;;;;;;;;;;;23.40;30.31;95238.50;4977381;28;806;-71
2023/01/26 08:11:07;;;;;;;;;;;;;;;23.38;30.35;95240.56;4968292;28;967;-70
2023/01/26 08:13:32;;;;;;;;;;;;;;;23.39;30.40;95236.84;4977163;28;881;-71
2023/01/26 08:16:05;;;;;;;;;;;;;;;23.41;30.33;95226.75;4992126;28;1192;-71
2023/01/26 08:18:30;;;;;;;;;;;;;;;23.39;30.38;95225.31;4977307;28;806;-70
2023/01/26 08:20:55;;;;;;;;;;;;;;;23.38;30.36;95221.84;4972727;28;949;-70
2023/01/26 08:23:21;;;;;;;;;;;;;;;23.38;30.35;95223.69;4971900;28;1194;-71
2023/01/26 08:25:46;;;;;;;;;;;;;;;23.38;30.36;95224.50;4976816;28;905;-71
2023/01/26 08:28:12;;;;;;;;;;;;;;;23.40;30.45;95224.31;4976956;28;1902;-71
2023/01/26 08:30:37;;;;;;;;;;;;;;;23.37;30.52;95222.88;4991343;28;1327;-71
2023/01/26 08:33:03;;;;;;;;;;;;;;;23.38;30.39;95212.97;4982073;28;1231;-71
2023/01/26 08:35:29;;;;;;;;;;;;;;;23.38;30.29;95215.66;4976437;28;1090;-70
2023/01/26 08:37:55;;;;;;;;;;;;;;;23.38;30.39;95213.81;5007819;28;1286;-71
2023/01/26 08:40:20;;;;;;;;;;;;;;;23.39;30.41;95210.06;4991562;28;1166;-71
2023/01/26 08:42:45;;;;;;;;;;;;;;;23.38;30.24;95211.13;4976530;28;896;-70
2023/01/26 08:45:11;;;;;;;;;;;;;;;23.39;30.35;95212.75;4967121;28;1064;-71
2023/01/26 08:47:36;;;;;;;;;;;;;;;23.42;30.44;95212.31;4991328;28;1981;-70
2023/01/26 08:50:01;;;;;;;;;;;;;;;23.39;30.38;95210.06;4991274;28;1188;-71
2023/01/26 08:52:26;;;;;;;;;;;;;;;23.40;30.14;95214.41;4976284;28;841;-72
2023/01/26 08:54:52;;;;;;;;;;;;;;;23.39;30.38;95218.09;4974352;28;943;-71
2023/01/26 08:57:17;;;;;;;;;;;;;;;23.39;30.32;95218.09;4968538;28;1045;-71
2023/01/26 08:59:45;;;;;;;;;;;;;;;23.39;30.09;95209.25;4990447;28;1309;-72
2023/01/26 09:02:10;;;;;;;;;;;;;;;23.38;30.21;95200.41;4976095;28;879;-72
2023/01/26 09:04:35;;;;;;;;;;;;;;;23.38;30.32;95208.44;4976036;28;925;-72
2023/01/26 09:07:01;;;;;;;;;;;;;;;23.39;30.17;95218.09;4981371;28;1906;-71
2023/01/26 09:09:26;;;;;;;;;;;;;;;23.41;30.28;95213.34;4975731;28;1071;-71
2023/01/26 09:11:54;;;;;;;;;;;;;;;23.42;30.35;95219.53;4976108;28;900;-71
2023/01/26 09:14:19;;;;;;;;;;;;;;;23.40;30.36;95206.38;4976050;28;917;-70
2023/01/26 09:16:44;;;;;;;;;;;;;;;23.38;30.41;95203.09;4976006;28;829;-71
2023/01/26 09:19:09;;;;;;;;;;;;;;;23.38;30.40;95196.91;4981269;28;1160;-71
2023/01/26 09:21:35;;;;;;;;;;;;;;;23.39;30.32;95199.38;4975734;28;896;-71
2023/01/26 09:24:01;;;;;;;;;;;;;;;23.38;30.40;95191.56;4975679;28;901;-71
2023/01/26 09:26:27;;;;;;;;;;;;;;;23.39;30.38;95190.53;4975508;28;1906;-71
2023/01/26 09:28:53;;;;;;;;;;;;;;;23.39;30.22;95188.66;4990097;28;1615;-71
2023/01/26 09:31:18;;;;;;;;;;;;;;;23.39;30.24;95177.94;4966031;28;1297;-71
2023/01/26 09:33:43;;;;;;;;;;;;;;;23.39;30.46;95169.91;4990413;28;1255;-71
2023/01/26 09:36:09;;;;;;;;;;;;;;;23.38;30.44;95165.59;4975395;28;885;-71
2023/01/26 09:38:35;;;;;;;;;;;;;;;23.41;30.28;95159.00;5006620;28;1242;-71
2023/01/26 09:41:03;;;;;;;;;;;;;;;23.40;30.37;95170.75;4967983;28;1031;-71
2023/01/26 09:43:49;;;;;;;;;;;;;;;23.38;30.33;95176.31;4974479;28;1138;-71
2023/01/26 09:46:17;;;;;;;;;;;;;;;23.38;30.57;95189.72;5006480;28;1284;-71
2023/01/26 09:48:49;;;;;;;;;;;;;;;23.38;30.41;95170.97;4975238;28;868;-71
2023/01/26 09:51:23;;;;;;;;;;;;;;;23.38;30.40;95164.78;4975227;28;797;-71
2023/01/26 09:53:53;;;;;;;;;;;;;;;23.36;30.36;95162.31;4965776;28;1193;-71
2023/01/26 09:56:19;;;;;;;;;;;;;;;23.38;30.46;95149.53;4975058;28;794;-71
2023/01/26 09:58:56;;;;;;;;;;;;;;;23.37;30.43;95152.44;4975046;28;889;-72
2023/01/26 10:01:37;;;;;;;;;;;;;;;23.37;30.50;95147.91;4975400;28;806;-69
2023/01/26 10:04:22;;;;;;;;;;;;;;;23.37;30.30;95152.44;4965888;28;992;-72
2023/01/26 10:06:47;;;;;;;;;;;;;;;23.37;30.14;95150.59;5006063;28;1906;-71
2023/01/26 10:09:23;;;;;;;;;;;;;;;23.38;30.56;95148.72;4974906;28;992;-71
2023/01/26 10:11:55;;;;;;;;;;;;;;;23.36;30.22;95146.25;4974672;28;793;-70
2023/01/26 10:14:29;;;;;;;;;;;;;;;23.38;30.51;95152.22;4989195;28;1186;-70
2023/01/26 10:16:55;;;;;;;;;;;;;;;23.38;30.26;95144.19;5001000;28;1333;-71
2023/01/26 10:19:29;;;;;;;;;;;;;;;23.36;30.41;95135.56;4974864;28;873;-72
2023/01/26 10:21:58;;;;;;;;;;;;;;;23.35;30.50;95126.72;4989565;28;1196;-71
2023/01/26 10:24:23;;;;;;;;;;;;;;;23.36;30.46;95119.50;4975546;28;813;-70
2023/01/26 10:26:51;;;;;;;;;;;;;;;23.36;30.50;95114.13;4966000;28;1899;-72
2023/01/26 10:29:20;;;;;;;;;;;;;;;23.38;30.25;95111.25;5008121;28;1482;-71
2023/01/26 10:31:48;;;;;;;;;;;;;;;23.38;30.41;95100.53;4976668;28;1258;-70
2023/01/26 10:34:16;;;;;;;;;;;;;;;23.38;30.35;95101.34;4977136;28;963;-70
2023/01/26 10:36:42;;;;;;;;;;;;;;;23.37;30.44;95093.53;4974529;28;850;-71
2023/01/26 10:39:09;;;;;;;;;;;;;;;23.38;30.39;95085.28;4965460;28;1146;-70
2023/01/26 10:41:37;;;;;;;;;;;;;;;23.37;30.43;95081.00;4989281;28;1534;-70
2023/01/26 10:44:19;;;;;;;;;;;;;;;23.37;30.38;95070.28;5005781;28;1372;-70
2023/01/26 10:46:44;;;;;;;;;;;;;;;23.36;30.45;95057.91;4974433;28;1910;-70
2023/01/26 10:49:18;;;;;;;;;;;;;;;23.37;30.43;95056.91;4967516;28;1045;-72
2023/01/26 10:51:45;;;;;;;;;;;;;;;23.37;30.34;95056.06;4989117;28;1195;-71
2023/01/26 10:54:21;;;;;;;;;;;;;;;23.37;30.38;95045.34;4974395;28;861;-71
2023/01/26 10:57:09;;;;;;;;;;;;;;;23.36;30.32;95039.19;4974323;28;818;-69
2023/01/26 10:59:34;;;;;;;;;;;;;;;23.37;30.25;95030.13;4974660;28;1582;-69
2023/01/26 11:02:01;;;;;;;;;;;;;;;23.37;30.28;95026.59;4980102;28;1253;-69
2023/01/26 11:04:27;;;;;;;;;;;;;;;23.37;30.40;95013.22;4974141;28;912;-70
2023/01/26 11:06:52;;;;;;;;;;;;;;;23.38;30.43;95020.22;5005557;28;1898;-70
2023/01/26 11:09:24;;;;;;;;;;;;;;;23.36;30.42;95012.41;4974282;28;802;-69
2023/01/26 11:11:54;;;;;;;;;;;;;;;23.32;30.62;94998.66;4968979;28;1087;-71
2023/01/26 11:14:19;;;;;;;;;;;;;;;23.38;30.45;95009.53;5003262;28;1219;-70
2023/01/26 11:16:49;;;;;;;;;;;;;;;23.36;30.36;95015.09;4974154;28;873;-70
2023/01/26 11:19:37;;;;;;;;;;;;;;;23.37;30.38;94998.00;4974099;28;912;-70
2023/01/26 11:22:07;;;;;;;;;;;;;;;23.37;30.43;94992.66;4974516;28;1765;-69
2023/01/26 11:25:01;;;;;;;;;;;;;;;23.37;30.41;94981.09;4967189;28;1096;-70
2023/01/26 11:27:38;;;;;;;;;;;;;;;23.34;30.36;94972.50;4992801;28;1898;-70
2023/01/26 11:30:22;;;;;;;;;;;;;;;23.34;30.39;94969.81;4992491;28;1332;-70
2023/01/26 11:33:08;;;;;;;;;;;;;;;23.34;30.39;94966.34;4978089;28;975;-70
2023/01/26 11:35:36;;;;;;;;;;;;;;;23.34;30.42;94955.63;4971309;28;1227;-70
2023/01/26 11:38:01;;;;;;;;;;;;;;;23.34;30.49;94961.78;4977714;28;837;-71
2023/01/26 11:40:45;;;;;;;;;;;;;;;23.34;30.37;94961.78;4977933;28;880;-70
2023/01/26 11:43:12;;;;;;;;;;;;;;;23.34;30.35;94950.28;4993002;28;1451;-71
2023/01/26 11:45:49;;;;;;;;;;;;;;;23.34;30.41;94944.91;4973242;28;959;-70
2023/01/26 11:48:24;;;;;;;;;;;;;;;23.32;30.33;94947.00;4987624;28;1918;-70
2023/01/26 11:51:07;;;;;;;;;;;;;;;23.33;30.32;94948.63;4977406;28;873;-70
2023/01/26 11:53:36;;;;;;;;;;;;;;;23.33;30.42;94948.63;4992331;28;1148;-69
2023/01/26 11:56:01;;;;;;;;;;;;;;;23.33;30.45;94945.94;4977345;28;927;-69
2023/01/26 11:58:30;;;;;;;;;;;;;;;23.34;30.47;94953.75;4968143;28;1120;-70
2023/01/26 12:00:57;;;;;;;;;;;;;;;23.35;30.13;94951.91;4977246;28;858;-70
2023/01/26 12:03:55;;;;;;;;;;;;;;;23.33;30.37;94943.25;4977183;28;873;-69
2023/01/26 12:06:26;;;;;;;;;;;;;;;23.33;30.40;94933.38;4986549;28;1390;-70
2023/01/26 12:09:02;;;;;;;;;;;;;;;23.33;30.44;94935.22;4982972;28;1211;-71
2023/01/26 12:11:34;;;;;;;;;;;;;;;23.33;30.21;94935.22;4976906;28;1104;-70
2023/01/26 12:14:17;;;;;;;;;;;;;;;23.32;30.38;94930.94;4976994;28;810;-71
2023/01/26 12:17:01;;;;;;;;;;;;;;;23.30;30.36;94930.31;4991954;28;1334;-71
2023/01/26 12:19:46;;;;;;;;;;;;;;;23.30;30.37;94916.94;4973085;28;958;-72
2023/01/26 12:22:18;;;;;;;;;;;;;;;23.31;30.29;94907.88;4972224;28;1163;-70
2023/01/26 12:24:52;;;;;;;;;;;;;;;23.32;30.22;94898.81;4991931;28;1203;-71
2023/01/26 12:27:25;;;;;;;;;;;;;;;23.34;30.35;94897.53;4976770;28;1894;-71
2023/01/26 12:29:55;;;;;;;;;;;;;;;23.31;30.26;94897.19;5008004;28;1536;-71
2023/01/26 12:32:21;;;;;;;;;;;;;;;23.32;30.27;94890.78;4998435;28;1410;-70
2023/01/26 12:34:47;;;;;;;;;;;;;;;23.31;30.08;94886.47;4976506;28;778;-70
2023/01/26 12:37:13;;;;;;;;;;;;;;;23.30;30.42;94880.28;4991599;28;1183;-70
2023/01/26 12:39:43;;;;;;;;;;;;;;;23.31;30.43;94876.59;4991406;28;1730;-70
2023/01/26 12:42:27;;;;;;;;;;;;;;;23.31;30.33;94875.78;4987998;28;1317;-69
2023/01/26 12:44:53;;;;;;;;;;;;;;;23.30;30.22;94871.44;4971391;28;1463;-70
2023/01/26 12:47:37;;;;;;;;;;;;;;;23.30;30.36;94863.41;4976385;28;1903;-69
2023/01/26 12:50:08;;;;;;;;;;;;;;;23.30;30.21;94871.44;4991246;28;1176;-69
2023/01/26 12:52:36;;;;;;;;;;;;;;;23.29;30.39;94870.63;4976327;28;805;-69
2023/01/26 12:55:02;;;;;;;;;;;;;;;23.30;30.02;94858.06;4966755;28;1045;-69
2023/01/26 12:57:35;;;;;;;;;;;;;;;23.30;30.16;94861.53;4976720;28;922;-69
2023/01/26 13:00:08;;;;;;;;;;;;;;;23.30;30.32;94864.22;5007520;28;1560;-70
2023/01/26 13:02:34;;;;;;;;;;;;;;;23.31;30.29;94862.38;4976154;28;908;-70
2023/01/26 13:05:01;;;;;;;;;;;;;;;23.30;30.13;94858.06;4971619;28;1076;-70
2023/01/26 13:07:31;;;;;;;;;;;;;;;23.29;30.24;94859.91;4970991;28;1914;-71
2023/01/26 13:10:06;;;;;;;;;;;;;;;23.30;30.19;94863.41;4976286;28;829;-68
2023/01/26 13:12:43;;;;;;;;;;;;;;;23.29;30.36;94859.91;4975950;28;917;-69
2023/01/26 13:15:12;;;;;;;;;;;;;;;23.27;30.21;94859.31;4975898;28;912;-71
2023/01/26 13:17:47;;;;;;;;;;;;;;;23.28;30.36;94860.13;4966536;28;1025;-71
2023/01/26 13:20:23;;;;;;;;;;;;;;;23.30;30.15;94863.41;4976164;28;841;-70
2023/01/26 13:22:48;;;;;;;;;;;;;;;23.29;30.17;94859.91;5007424;28;1191;-70
2023/01/26 13:25:14;;;;;;;;;;;;;;;23.28;30.36;94852.94;4975594;28;923;-69
2023/01/26 13:27:39;;;;;;;;;;;;;;;23.30;30.16;94852.69;4971483;28;1907;-70
2023/01/26 13:30:23;;;;;;;;;;;;;;;23.28;30.34;94844.06;4970439;28;1446;-70
2023/01/26 13:32:48;;;;;;;;;;;;;;;23.28;30.25;94844.91;4990481;28;1406;-69
2023/01/26 13:35:18;;;;;;;;;;;;;;;23.28;30.38;94839.56;4975906;28;864;-69
2023/01/26 13:37:48;;;;;;;;;;;;;;;23.29;30.36;94835.84;4975412;28;817;-70
2023/01/26 13:40:33;;;;;;;;;;;;;;;23.29;30.33;94835.03;4997267;28;1425;-70
2023/01/26 13:43:11;;;;;;;;;;;;;;;23.28;30.32;94834.22;4975218;28;1035;-69
2023/01/26 13:45:46;;;;;;;;;;;;;;;23.28;30.21;94833.38;4975226;28;870;-70